Time,TemperatureF,DewpointF,PressureIn,WindDirection,WindDirectionDegrees,WindSpeedMPH,WindSpeedGustMPH,Humidity,HourlyPrecipIn,Conditions,Clouds,dailyrainin,SoftwareType,DateUTC
2013-05-08 00:04:00,54.0,53.4,29.73,NNW,337,0.0,-999.0,98,-99.99,,,0.00,Acu-Link.com,2013-05-08 04:04:00,
2013-05-08 00:19:00,53.8,53.2,29.72,WNW,292,0.0,-999.0,98,-99.99,,,0.00,Acu-Link.com,2013-05-08 04:19:00,
2013-05-08 00:35:00,53.6,53.0,29.72,West,270,0.0,-999.0,98,-99.99,,,0.00,Acu-Link.com,2013-05-08 04:35:00,
2013-05-08 00:50:00,52.7,52.2,29.73,West,270,0.0,-999.0,98,-99.99,,,0.00,Acu-Link.com,2013-05-08 04:50:00,
2013-05-08 01:05:00,52.5,52.0,29.72,SW,225,0.0,-999.0,98,-99.99,,,0.00,Acu-Link.com,2013-05-08 05:05:00,
2013-05-08 01:20:00,52.5,52.0,29.72,ENE,67,0.0,-999.0,98,-99.99,,,0.00,Acu-Link.com,2013-05-08 05:20:00,
2013-05-08 01:35:00,51.8,51.3,29.71,West,270,0.0,-999.0,98,-99.99,,,0.00,Acu-Link.com,2013-05-08 05:35:00,
2013-05-08 01:50:00,51.8,51.3,29.71,SW,225,0.0,-999.0,98,-99.99,,,0.00,Acu-Link.com,2013-05-08 05:50:00,
2013-05-08 02:05:00,51.8,51.3,29.71,West,270,0.0,-999.0,98,-99.99,,,0.00,Acu-Link.com,2013-05-08 06:05:00,
2013-05-08 02:20:00,51.6,51.1,29.70,SSW,202,0.0,-999.0,98,-99.99,,,0.00,Acu-Link.com,2013-05-08 06:20:00,
2013-05-08 02:35:00,51.8,51.3,29.70,South,180,0.0,-999.0,98,-99.99,,,0.00,Acu-Link.com,2013-05-08 06:35:00,
2013-05-08 02:50:00,51.8,51.3,29.70,SSW,202,0.0,-999.0,98,-99.99,,,0.00,Acu-Link.com,2013-05-08 06:50:00,
2013-05-08 03:06:00,51.3,50.8,29.70,NNW,337,0.0,-999.0,98,-99.99,,,0.00,Acu-Link.com,2013-05-08 07:06:00,
2013-05-08 03:21:00,50.7,50.2,29.71,WSW,247,0.0,-999.0,98,-99.99,,,0.00,Acu-Link.com,2013-05-08 07:21:00,
2013-05-08 03:36:00,50.7,50.2,29.70,SW,225,0.0,-999.0,98,-99.99,,,0.00,Acu-Link.com,2013-05-08 07:36:00,
2013-05-08 03:51:00,50.5,50.0,29.70,SW,225,0.0,-999.0,98,-99.99,,,0.00,Acu-Link.com,2013-05-08 07:51:00,
2013-05-08 04:06:00,50.5,50.0,29.70,SW,225,0.0,-999.0,98,-99.99,,,0.00,Acu-Link.com,2013-05-08 08:06:00,
2013-05-08 04:22:00,50.5,50.0,29.71,East,90,0.0,-999.0,98,-99.99,,,0.00,Acu-Link.com,2013-05-08 08:22:00,
2013-05-08 04:37:00,50.4,49.9,29.71,NE,45,0.0,-999.0,98,-99.99,,,0.00,Acu-Link.com,2013-05-08 08:37:00,
2013-05-08 04:52:00,50.4,49.9,29.71,NNW,337,0.0,-999.0,98,-99.99,,,0.00,Acu-Link.com,2013-05-08 08:52:00,
2013-05-08 05:07:00,49.6,49.1,29.71,West,270,0.0,-999.0,98,-99.99,,,0.00,Acu-Link.com,2013-05-08 09:07:00,
2013-05-08 05:22:00,49.5,49.0,29.72,NE,45,0.0,-999.0,98,-99.99,,,0.00,Acu-Link.com,2013-05-08 09:22:00,
2013-05-08 05:37:00,49.1,48.6,29.71,NNW,337,0.0,-999.0,98,-99.99,,,0.00,Acu-Link.com,2013-05-08 09:37:00,
2013-05-08 05:52:00,49.3,48.8,29.72,NNW,337,0.0,-999.0,98,-99.99,,,0.00,Acu-Link.com,2013-05-08 09:52:00,
2013-05-08 06:07:00,49.1,48.6,29.73,NNW,337,0.0,-999.0,98,-99.99,,,0.00,Acu-Link.com,2013-05-08 10:07:00,
2013-05-08 06:22:00,48.4,47.9,29.73,NNE,22,0.0,-999.0,98,-99.99,,,0.00,Acu-Link.com,2013-05-08 10:22:00,
2013-05-08 06:37:00,48.2,47.7,29.73,NW,315,0.0,-999.0,98,-99.99,,,0.00,Acu-Link.com,2013-05-08 10:37:00,
2013-05-08 06:53:00,50.7,50.2,29.74,SW,225,3.7,-999.0,98,-99.99,,,0.00,Acu-Link.com,2013-05-08 10:53:00,
2013-05-08 07:08:00,50.5,50.0,29.75,WSW,247,0.0,-999.0,98,-99.99,,,0.00,Acu-Link.com,2013-05-08 11:08:00,
2013-05-08 07:23:00,50.9,50.4,29.77,SSW,202,0.0,-999.0,98,-99.99,,,0.00,Acu-Link.com,2013-05-08 11:23:00,
2013-05-08 07:38:00,53.1,52.5,29.77,South,180,0.0,-999.0,98,-99.99,,,0.00,Acu-Link.com,2013-05-08 11:38:00,
2013-05-08 07:53:00,55.0,54.4,29.77,West,270,0.0,-999.0,98,-99.99,,,0.00,Acu-Link.com,2013-05-08 11:53:00,
2013-05-08 08:08:00,57.2,56.6,29.77,South,180,2.7,-999.0,98,-99.99,,,0.00,Acu-Link.com,2013-05-08 12:08:00,
2013-05-08 08:23:00,57.2,56.6,29.78,SSW,202,3.7,-999.0,98,-99.99,,,0.00,Acu-Link.com,2013-05-08 12:23:00,
2013-05-08 08:38:00,58.1,57.5,29.79,SSW,202,3.2,-999.0,98,-99.99,,,0.00,Acu-Link.com,2013-05-08 12:38:00,
2013-05-08 08:53:00,58.8,58.2,29.78,South,180,2.7,-999.0,98,-99.99,,,0.00,Acu-Link.com,2013-05-08 12:53:00,
2013-05-08 09:09:00,59.9,59.0,29.78,South,180,0.0,-999.0,97,-99.99,,,0.00,Acu-Link.com,2013-05-08 13:09:00,
2013-05-08 09:24:00,61.0,59.6,29.78,SW,225,4.2,-999.0,95,-99.99,,,0.00,Acu-Link.com,2013-05-08 13:24:00,
2013-05-08 09:39:00,63.9,61.2,29.78,WSW,247,2.2,-999.0,91,-99.99,,,0.00,Acu-Link.com,2013-05-08 13:39:00,
2013-05-08 09:54:00,66.4,63.1,29.79,WNW,292,1.7,-999.0,89,-99.99,,,0.00,Acu-Link.com,2013-05-08 13:54:00,
2013-05-08 10:09:00,67.5,63.5,29.78,NE,45,0.0,-999.0,87,-99.99,,,0.00,Acu-Link.com,2013-05-08 14:09:00,
2013-05-08 10:24:00,66.7,62.7,29.78,SE,135,1.7,-999.0,87,-99.99,,,0.00,Acu-Link.com,2013-05-08 14:24:00,
2013-05-08 10:39:00,68.0,64.3,29.79,NE,45,0.0,-999.0,88,-99.99,,,0.00,Acu-Link.com,2013-05-08 14:39:00,
2013-05-08 10:54:00,69.6,63.9,29.78,NNE,22,6.8,-999.0,82,-99.99,,,0.00,Acu-Link.com,2013-05-08 14:54:00,
2013-05-08 11:09:00,70.2,64.4,29.78,NNW,337,2.7,-999.0,82,-99.99,,,0.00,Acu-Link.com,2013-05-08 15:09:00,
2013-05-08 11:24:00,71.2,64.3,29.79,NNE,22,2.2,-999.0,79,-99.99,,,0.00,Acu-Link.com,2013-05-08 15:24:00,
2013-05-08 11:40:00,72.5,65.2,29.79,NW,315,3.2,-999.0,78,-99.99,,,0.00,Acu-Link.com,2013-05-08 15:40:00,
2013-05-08 11:55:00,73.6,64.8,29.78,NE,45,3.7,-999.0,74,-99.99,,,0.00,Acu-Link.com,2013-05-08 15:55:00,
2013-05-08 12:10:00,72.5,64.5,29.79,NNE,22,4.2,-999.0,76,-99.99,,,0.00,Acu-Link.com,2013-05-08 16:10:00,
2013-05-08 12:25:00,73.8,64.6,29.78,North,0,3.7,-999.0,73,-99.99,,,0.00,Acu-Link.com,2013-05-08 16:25:00,
2013-05-08 12:40:00,72.7,63.9,29.78,WNW,292,1.7,-999.0,74,-99.99,,,0.00,Acu-Link.com,2013-05-08 16:40:00,
2013-05-08 12:55:00,71.4,63.1,29.78,NNW,337,1.1,-999.0,75,-99.99,,,0.00,Acu-Link.com,2013-05-08 16:55:00,
2013-05-08 13:10:00,72.1,64.5,29.77,NE,45,1.7,-999.0,77,-99.99,,,0.00,Acu-Link.com,2013-05-08 17:10:00,
2013-05-08 13:25:00,72.1,64.1,29.77,NNE,22,0.0,-999.0,76,-99.99,,,0.00,Acu-Link.com,2013-05-08 17:25:00,
2013-05-08 13:40:00,72.3,64.3,29.76,NE,45,1.1,-999.0,76,-99.99,,,0.00,Acu-Link.com,2013-05-08 17:40:00,
2013-05-08 13:56:00,72.5,63.7,29.76,NNE,22,2.2,-999.0,74,-99.99,,,0.00,Acu-Link.com,2013-05-08 17:56:00,
2013-05-08 14:11:00,73.4,64.6,29.76,ENE,67,0.0,-999.0,74,-99.99,,,0.00,Acu-Link.com,2013-05-08 18:11:00,
2013-05-08 14:26:00,73.4,64.6,29.76,SSE,157,0.0,-999.0,74,-99.99,,,0.00,Acu-Link.com,2013-05-08 18:26:00,
2013-05-08 14:41:00,73.9,64.7,29.76,South,180,1.7,-999.0,73,-99.99,,,0.00,Acu-Link.com,2013-05-08 18:41:00,
2013-05-08 14:56:00,74.7,65.5,29.76,East,90,2.2,-999.0,73,-99.99,,,0.00,Acu-Link.com,2013-05-08 18:56:00,
2013-05-08 15:11:00,77.0,63.9,29.75,ESE,112,1.7,-999.0,64,-99.99,,,0.00,Acu-Link.com,2013-05-08 19:11:00,
2013-05-08 15:27:00,77.5,63.9,29.75,SSE,157,3.2,-999.0,63,-99.99,,,0.00,Acu-Link.com,2013-05-08 19:27:00,
2013-05-08 15:42:00,78.8,64.7,29.75,NNW,337,4.2,-999.0,62,-99.99,,,0.00,Acu-Link.com,2013-05-08 19:42:00,
2013-05-08 15:57:00,76.5,63.8,29.74,SW,225,0.0,-999.0,65,-99.99,,,0.00,Acu-Link.com,2013-05-08 19:57:00,
2013-05-08 18:03:00,79.2,64.1,29.72,NNE,22,1.1,-999.0,60,-99.99,,,0.00,Acu-Link.com,2013-05-08 22:03:00,
2013-05-08 18:18:00,78.1,64.9,29.72,NNE,22,0.0,-999.0,64,-99.99,,,0.00,Acu-Link.com,2013-05-08 22:18:00,
2013-05-08 18:33:00,78.1,65.8,29.72,WNW,292,2.2,-999.0,66,-99.99,,,0.00,Acu-Link.com,2013-05-08 22:33:00,
2013-05-08 18:48:00,78.8,63.7,29.72,WSW,247,1.7,-999.0,60,-99.99,,,0.00,Acu-Link.com,2013-05-08 22:48:00,
2013-05-08 19:03:00,76.6,63.5,29.72,WNW,292,1.1,-999.0,64,-99.99,,,0.00,Acu-Link.com,2013-05-08 23:03:00,
2013-05-08 19:18:00,75.6,63.9,29.72,NNE,22,0.0,-999.0,67,-99.99,,,0.00,Acu-Link.com,2013-05-08 23:18:00,
2013-05-08 19:34:00,74.7,64.2,29.72,SSW,202,0.0,-999.0,70,-99.99,,,0.00,Acu-Link.com,2013-05-08 23:34:00,
2013-05-08 19:49:00,74.5,64.1,29.72,SSW,202,0.0,-999.0,70,-99.99,,,0.00,Acu-Link.com,2013-05-08 23:49:00,
2013-05-08 20:04:00,73.4,63.8,29.73,SW,225,0.0,-999.0,72,-99.99,,,0.00,Acu-Link.com,2013-05-09 00:04:00,
2013-05-08 20:19:00,71.6,64.7,29.73,SW,225,0.0,-999.0,79,-99.99,,,0.00,Acu-Link.com,2013-05-09 00:19:00,
2013-05-08 20:34:00,70.0,64.2,29.74,NNW,337,0.0,-999.0,82,-99.99,,,0.00,Acu-Link.com,2013-05-09 00:34:00,
2013-05-08 20:49:00,68.7,64.3,29.74,WSW,247,0.0,-999.0,86,-99.99,,,0.00,Acu-Link.com,2013-05-09 00:49:00,
2013-05-08 21:04:00,67.5,63.8,29.75,North,0,0.0,-999.0,88,-99.99,,,0.00,Acu-Link.com,2013-05-09 01:04:00,
2013-05-08 21:19:00,66.2,63.8,29.75,SSW,202,0.0,-999.0,92,-99.99,,,0.00,Acu-Link.com,2013-05-09 01:19:00,
2013-05-08 21:34:00,65.1,63.6,29.75,SSW,202,0.0,-999.0,95,-99.99,,,0.00,Acu-Link.com,2013-05-09 01:34:00,
2013-05-08 21:50:00,64.6,63.1,29.76,SSW,202,0.0,-999.0,95,-99.99,,,0.00,Acu-Link.com,2013-05-09 01:50:00,
2013-05-08 22:05:00,64.0,62.8,29.76,WNW,292,0.0,-999.0,96,-99.99,,,0.00,Acu-Link.com,2013-05-09 02:05:00,
2013-05-08 22:20:00,63.5,62.9,29.77,NNW,337,0.0,-999.0,98,-99.99,,,0.00,Acu-Link.com,2013-05-09 02:20:00,
2013-05-08 22:35:00,63.3,62.7,29.79,WNW,292,0.0,-999.0,98,-99.99,,,0.00,Acu-Link.com,2013-05-09 02:35:00,
2013-05-08 22:50:00,63.1,62.5,29.79,NNE,22,0.0,-999.0,98,-99.99,,,0.00,Acu-Link.com,2013-05-09 02:50:00,
2013-05-08 23:05:00,62.8,62.2,29.79,North,0,0.0,-999.0,98,-99.99,,,0.00,Acu-Link.com,2013-05-09 03:05:00,
2013-05-08 23:20:00,61.9,61.3,29.79,North,0,0.0,-999.0,98,-99.99,,,0.00,Acu-Link.com,2013-05-09 03:20:00,
2013-05-08 23:36:00,61.2,60.6,29.78,WNW,292,0.0,-999.0,98,-99.99,,,0.00,Acu-Link.com,2013-05-09 03:36:00,
2013-05-08 23:51:00,60.8,60.2,29.79,SW,225,0.0,-999.0,98,-99.99,,,0.00,Acu-Link.com,2013-05-09 03:51:00,